Погода Есперантинана 2 недели

Пиауи, Бразилия

18 - 30 июля
  • 18июля
    Сегодня
    +23°
    +33°
    Практически безоблачно
    ВремяПогодаТемператураВлажностьДавлениеВетер, м/сВероятность осадков
    00:00Ясно и безоблачно+24°C79 %757 мм2.1 м/с5 %
    03:00Ясно и безоблачно+22°C93 %756 мм1.6 м/с5 %
    06:00Ясно и безоблачно+21°C95 %757 мм1.8 м/с5 %
    09:00Ясно и безоблачно+28°C59 %758 мм2.7 м/с5 %
    12:00Облачно с прояснениями+31°C44 %757 мм3.4 м/с2 %
    15:00Практически безоблачно+31°C42 %755 мм2.2 м/с5 %
    18:00Ясно и безоблачно+30°C54 %755 мм0.4 м/с5 %
    21:00Практически безоблачно+26°C69 %757 мм2.6 м/с5 %
  • 19июля
    Пятница
    +23°
    +34°
    Практически безоблачно
    ВремяПогодаТемператураВлажностьДавлениеВетер, м/сВероятность осадков
    00:00Ясно и безоблачно+25°C83 %757 мм2.4 м/с5 %
    03:00Ясно и безоблачно+23°C93 %756 мм1.8 м/с5 %
    06:00Ясно и безоблачно+23°C97 %757 мм0.6 м/с5 %
    09:00Ясно и безоблачно+28°C66 %758 мм2.1 м/с5 %
    12:00Ясно и безоблачно+31°C48 %757 мм2.7 м/с5 %
    15:00Практически безоблачно+33°C38 %755 мм2.3 м/с4 %
    18:00Небольшая облачность+30°C59 %755 мм2.3 м/с4 %
    21:00Ясно и безоблачно+28°C64 %757 мм3.4 м/с5 %
  • 20июля
    Суббота
    +21°
    +33°
    Практически безоблачно
    ВремяПогодаТемператураВлажностьДавлениеВетер, м/сВероятность осадков
    00:00Облачно с прояснениями+25°C88 %757 мм1.6 м/с2 %
    03:00Пасмурно, сплошная облачность+24°C93 %756 мм1.2 м/с8 %
    06:00Ясно и безоблачно+24°C97 %756 мм1.3 м/с11 %
    09:00Ясно и безоблачно+29°C53 %758 мм4.2 м/с10 %
    12:00Ясно и безоблачно+31°C44 %756 мм4.0 м/с5 %
    15:00Практически безоблачно+32°C38 %754 мм2.9 м/с6 %
    18:00Практически безоблачно+30°C59 %755 мм1.3 м/с5 %
    21:00Облачно с прояснениями+27°C60 %756 мм2.3 м/с4 %
  • 21июля
    Воскресенье
    +22°
    +34°
    Ясно и безоблачно
    ВремяПогодаТемператураВлажностьДавлениеВетер, м/сВероятность осадков
    00:00Ясно и безоблачно+24°C78 %756 мм1.3 м/с6 %
    03:00Практически безоблачно+23°C74 %755 мм1.3 м/с7 %
    06:00Ясно и безоблачно+24°C56 %756 мм2.9 м/с19 %
    09:00Ясно и безоблачно+29°C49 %757 мм3.6 м/с6 %
    12:00Ясно и безоблачно+32°C37 %755 мм3.9 м/с3 %
    15:00Ясно и безоблачно+33°C31 %754 мм3.5 м/с5 %
    18:00Облачно с прояснениями+30°C58 %754 мм1.1 м/с5 %
    21:00Практически безоблачно+27°C63 %756 мм3.6 м/с5 %
Мы используем cookies
Соглашаюсь